sensor_id;sensor_type;location;lat;lon;timestamp;P1;durP1;ratioP1;P2;durP2;ratioP2
10645;SDS011;5371;49.782;9.932;2024-01-27T00:00:25;6.97;;;2.30;;
10645;SDS011;5371;49.782;9.932;2024-01-27T00:02:52;4.83;;;2.40;;
10645;SDS011;5371;49.782;9.932;2024-01-27T00:05:19;12.20;;;2.80;;
10645;SDS011;5371;49.782;9.932;2024-01-27T00:07:48;9.87;;;2.50;;
10645;SDS011;5371;49.782;9.932;2024-01-27T00:10:15;12.33;;;2.70;;
10645;SDS011;5371;49.782;9.932;2024-01-27T00:12:43;8.67;;;2.70;;
10645;SDS011;5371;49.782;9.932;2024-01-27T00:15:10;8.13;;;3.17;;
10645;SDS011;5371;49.782;9.932;2024-01-27T00:17:37;9.67;;;2.50;;
10645;SDS011;5371;49.782;9.932;2024-01-27T00:20:05;7.70;;;2.57;;
10645;SDS011;5371;49.782;9.932;2024-01-27T00:22:33;8.07;;;2.50;;
10645;SDS011;5371;49.782;9.932;2024-01-27T00:25:01;5.03;;;2.23;;
10645;SDS011;5371;49.782;9.932;2024-01-27T00:27:28;7.30;;;2.60;;
10645;SDS011;5371;49.782;9.932;2024-01-27T00:29:55;9.27;;;2.67;;
10645;SDS011;5371;49.782;9.932;2024-01-27T00:32:22;4.93;;;2.17;;
10645;SDS011;5371;49.782;9.932;2024-01-27T00:34:49;6.63;;;2.33;;
10645;SDS011;5371;49.782;9.932;2024-01-27T00:37:16;9.77;;;2.67;;
10645;SDS011;5371;49.782;9.932;2024-01-27T00:39:43;5.67;;;2.47;;
10645;SDS011;5371;49.782;9.932;2024-01-27T00:42:12;10.77;;;2.70;;
10645;SDS011;5371;49.782;9.932;2024-01-27T00:44:40;7.97;;;2.30;;
10645;SDS011;5371;49.782;9.932;2024-01-27T00:47:07;6.97;;;2.63;;
10645;SDS011;5371;49.782;9.932;2024-01-27T00:49:34;7.93;;;2.23;;
10645;SDS011;5371;49.782;9.932;2024-01-27T00:52:01;5.50;;;2.10;;
10645;SDS011;5371;49.782;9.932;2024-01-27T00:54:27;10.17;;;2.50;;
10645;SDS011;5371;49.782;9.932;2024-01-27T00:56:54;6.07;;;2.33;;
10645;SDS011;5371;49.782;9.932;2024-01-27T00:59:23;7.70;;;2.53;;
10645;SDS011;5371;49.782;9.932;2024-01-27T01:01:50;8.17;;;2.47;;
10645;SDS011;5371;49.782;9.932;2024-01-27T01:04:17;5.93;;;2.40;;
10645;SDS011;5371;49.782;9.932;2024-01-27T01:06:44;8.10;;;2.47;;
10645;SDS011;5371;49.782;9.932;2024-01-27T01:09:11;7.33;;;2.47;;
10645;SDS011;5371;49.782;9.932;2024-01-27T01:11:38;8.63;;;2.60;;
10645;SDS011;5371;49.782;9.932;2024-01-27T01:14:05;4.13;;;2.33;;
10645;SDS011;5371;49.782;9.932;2024-01-27T01:16:34;6.60;;;2.50;;
10645;SDS011;5371;49.782;9.932;2024-01-27T01:19:04;9.23;;;2.80;;
10645;SDS011;5371;49.782;9.932;2024-01-27T01:21:31;5.73;;;2.27;;
10645;SDS011;5371;49.782;9.932;2024-01-27T01:23:57;7.50;;;2.50;;
10645;SDS011;5371;49.782;9.932;2024-01-27T01:26:25;7.77;;;3.07;;
10645;SDS011;5371;49.782;9.932;2024-01-27T01:28:51;9.57;;;2.57;;
10645;SDS011;5371;49.782;9.932;2024-01-27T01:31:18;12.53;;;3.23;;
10645;SDS011;5371;49.782;9.932;2024-01-27T01:33:47;6.97;;;2.57;;
10645;SDS011;5371;49.782;9.932;2024-01-27T01:36:14;10.53;;;2.60;;
10645;SDS011;5371;49.782;9.932;2024-01-27T01:38:41;6.37;;;2.40;;
10645;SDS011;5371;49.782;9.932;2024-01-27T01:41:08;8.80;;;2.70;;
10645;SDS011;5371;49.782;9.932;2024-01-27T01:43:34;10.07;;;2.97;;
10645;SDS011;5371;49.782;9.932;2024-01-27T01:46:01;10.47;;;2.93;;
10645;SDS011;5371;49.782;9.932;2024-01-27T01:48:29;9.20;;;2.70;;
10645;SDS011;5371;49.782;9.932;2024-01-27T01:50:57;7.43;;;2.80;;
10645;SDS011;5371;49.782;9.932;2024-01-27T01:53:25;10.03;;;3.10;;
10645;SDS011;5371;49.782;9.932;2024-01-27T01:55:52;8.57;;;2.80;;
10645;SDS011;5371;49.782;9.932;2024-01-27T01:58:19;12.37;;;3.43;;
10645;SDS011;5371;49.782;9.932;2024-01-27T02:00:46;11.53;;;3.50;;
10645;SDS011;5371;49.782;9.932;2024-01-27T02:03:13;7.93;;;3.37;;
10645;SDS011;5371;49.782;9.932;2024-01-27T02:05:40;8.67;;;2.97;;
10645;SDS011;5371;49.782;9.932;2024-01-27T02:08:09;8.27;;;3.00;;
10645;SDS011;5371;49.782;9.932;2024-01-27T02:10:36;10.53;;;3.40;;
10645;SDS011;5371;49.782;9.932;2024-01-27T02:13:03;9.80;;;2.97;;
10645;SDS011;5371;49.782;9.932;2024-01-27T02:15:31;7.63;;;3.10;;
10645;SDS011;5371;49.782;9.932;2024-01-27T02:17:59;9.20;;;3.43;;
10645;SDS011;5371;49.782;9.932;2024-01-27T02:20:26;8.17;;;3.07;;
10645;SDS011;5371;49.782;9.932;2024-01-27T02:22:52;9.03;;;3.20;;
10645;SDS011;5371;49.782;9.932;2024-01-27T02:25:21;10.67;;;3.50;;
10645;SDS011;5371;49.782;9.932;2024-01-27T02:27:48;7.97;;;2.97;;
10645;SDS011;5371;49.782;9.932;2024-01-27T02:30:15;8.80;;;3.03;;
10645;SDS011;5371;49.782;9.932;2024-01-27T02:32:42;11.33;;;3.03;;
10645;SDS011;5371;49.782;9.932;2024-01-27T02:35:09;11.63;;;3.17;;
10645;SDS011;5371;49.782;9.932;2024-01-27T02:37:36;8.33;;;2.80;;
10645;SDS011;5371;49.782;9.932;2024-01-27T02:40:03;6.60;;;2.83;;
10645;SDS011;5371;49.782;9.932;2024-01-27T02:42:32;7.47;;;3.27;;
10645;SDS011;5371;49.782;9.932;2024-01-27T02:45:00;9.87;;;3.33;;
10645;SDS011;5371;49.782;9.932;2024-01-27T02:47:29;7.10;;;2.90;;
10645;SDS011;5371;49.782;9.932;2024-01-27T02:49:56;8.53;;;3.10;;
10645;SDS011;5371;49.782;9.932;2024-01-27T02:52:23;7.47;;;2.90;;
10645;SDS011;5371;49.782;9.932;2024-01-27T02:54:50;12.03;;;2.73;;
10645;SDS011;5371;49.782;9.932;2024-01-27T02:57:17;12.97;;;3.53;;
10645;SDS011;5371;49.782;9.932;2024-01-27T02:59:46;8.70;;;3.03;;
10645;SDS011;5371;49.782;9.932;2024-01-27T03:02:13;8.93;;;2.87;;
10645;SDS011;5371;49.782;9.932;2024-01-27T03:04:40;10.47;;;2.73;;
10645;SDS011;5371;49.782;9.932;2024-01-27T03:07:07;9.03;;;2.53;;
10645;SDS011;5371;49.782;9.932;2024-01-27T03:09:34;8.53;;;3.17;;
10645;SDS011;5371;49.782;9.932;2024-01-27T03:12:01;8.90;;;2.47;;
10645;SDS011;5371;49.782;9.932;2024-01-27T03:14:29;7.93;;;2.67;;
10645;SDS011;5371;49.782;9.932;2024-01-27T03:16:57;8.53;;;2.60;;
10645;SDS011;5371;49.782;9.932;2024-01-27T03:19:24;7.87;;;2.30;;
10645;SDS011;5371;49.782;9.932;2024-01-27T03:21:51;7.30;;;2.33;;
10645;SDS011;5371;49.782;9.932;2024-01-27T03:24:18;8.10;;;2.50;;
10645;SDS011;5371;49.782;9.932;2024-01-27T03:26:45;7.33;;;2.63;;
10645;SDS011;5371;49.782;9.932;2024-01-27T03:29:12;11.13;;;3.00;;
10645;SDS011;5371;49.782;9.932;2024-01-27T03:31:38;13.30;;;2.90;;
10645;SDS011;5371;49.782;9.932;2024-01-27T03:34:06;10.00;;;2.77;;
10645;SDS011;5371;49.782;9.932;2024-01-27T03:36:33;10.33;;;2.80;;
10645;SDS011;5371;49.782;9.932;2024-01-27T03:39:00;10.07;;;2.57;;
10645;SDS011;5371;49.782;9.932;2024-01-27T03:41:28;10.07;;;2.53;;
10645;SDS011;5371;49.782;9.932;2024-01-27T03:43:55;9.97;;;2.47;;
10645;SDS011;5371;49.782;9.932;2024-01-27T03:46:22;12.07;;;2.70;;
10645;SDS011;5371;49.782;9.932;2024-01-27T03:48:49;8.20;;;2.23;;
10645;SDS011;5371;49.782;9.932;2024-01-27T03:51:18;6.90;;;2.70;;
10645;SDS011;5371;49.782;9.932;2024-01-27T03:53:44;5.77;;;2.60;;
10645;SDS011;5371;49.782;9.932;2024-01-27T03:56:14;10.83;;;2.50;;
10645;SDS011;5371;49.782;9.932;2024-01-27T03:58:41;11.33;;;3.00;;
10645;SDS011;5371;49.782;9.932;2024-01-27T04:01:08;10.90;;;2.67;;
10645;SDS011;5371;49.782;9.932;2024-01-27T04:03:35;11.60;;;2.53;;
10645;SDS011;5371;49.782;9.932;2024-01-27T04:06:02;7.27;;;2.60;;
10645;SDS011;5371;49.782;9.932;2024-01-27T04:08:30;8.37;;;2.50;;
10645;SDS011;5371;49.782;9.932;2024-01-27T04:10:57;6.10;;;2.40;;
10645;SDS011;5371;49.782;9.932;2024-01-27T04:13:24;5.77;;;2.50;;
10645;SDS011;5371;49.782;9.932;2024-01-27T04:15:51;5.20;;;2.47;;
10645;SDS011;5371;49.782;9.932;2024-01-27T04:18:19;15.30;;;2.80;;
10645;SDS011;5371;49.782;9.932;2024-01-27T04:20:46;8.63;;;3.27;;
10645;SDS011;5371;49.782;9.932;2024-01-27T04:23:14;6.83;;;2.70;;
10645;SDS011;5371;49.782;9.932;2024-01-27T04:25:43;12.27;;;3.00;;
10645;SDS011;5371;49.782;9.932;2024-01-27T04:28:10;9.07;;;3.07;;
10645;SDS011;5371;49.782;9.932;2024-01-27T04:30:38;8.17;;;2.90;;
10645;SDS011;5371;49.782;9.932;2024-01-27T04:33:05;13.83;;;3.57;;
10645;SDS011;5371;49.782;9.932;2024-01-27T04:35:32;9.23;;;2.83;;
10645;SDS011;5371;49.782;9.932;2024-01-27T04:37:59;11.13;;;3.10;;
10645;SDS011;5371;49.782;9.932;2024-01-27T04:40:26;5.97;;;3.13;;
10645;SDS011;5371;49.782;9.932;2024-01-27T04:42:55;9.03;;;3.13;;
10645;SDS011;5371;49.782;9.932;2024-01-27T04:45:22;9.73;;;2.80;;
10645;SDS011;5371;49.782;9.932;2024-01-27T04:47:49;10.20;;;2.97;;
10645;SDS011;5371;49.782;9.932;2024-01-27T04:50:16;10.07;;;3.00;;
10645;SDS011;5371;49.782;9.932;2024-01-27T04:52:42;15.97;;;3.27;;
10645;SDS011;5371;49.782;9.932;2024-01-27T04:55:09;10.70;;;2.70;;
10645;SDS011;5371;49.782;9.932;2024-01-27T04:57:36;7.37;;;2.90;;
10645;SDS011;5371;49.782;9.932;2024-01-27T05:00:05;9.13;;;3.07;;
10645;SDS011;5371;49.782;9.932;2024-01-27T05:02:38;9.90;;;3.10;;
10645;SDS011;5371;49.782;9.932;2024-01-27T05:05:06;6.80;;;2.90;;
10645;SDS011;5371;49.782;9.932;2024-01-27T05:07:33;10.70;;;3.67;;
10645;SDS011;5371;49.782;9.932;2024-01-27T05:10:00;10.23;;;3.40;;
10645;SDS011;5371;49.782;9.932;2024-01-27T05:12:27;8.47;;;3.00;;
10645;SDS011;5371;49.782;9.932;2024-01-27T05:14:54;8.57;;;2.60;;
10645;SDS011;5371;49.782;9.932;2024-01-27T05:17:22;10.17;;;2.80;;
10645;SDS011;5371;49.782;9.932;2024-01-27T05:19:52;8.50;;;3.23;;
10645;SDS011;5371;49.782;9.932;2024-01-27T05:22:19;9.33;;;2.97;;
10645;SDS011;5371;49.782;9.932;2024-01-27T05:24:46;8.73;;;3.10;;
10645;SDS011;5371;49.782;9.932;2024-01-27T05:27:14;12.00;;;3.37;;
10645;SDS011;5371;49.782;9.932;2024-01-27T05:29:41;13.73;;;3.43;;
10645;SDS011;5371;49.782;9.932;2024-01-27T05:32:08;14.07;;;3.80;;
10645;SDS011;5371;49.782;9.932;2024-01-27T05:34:36;13.43;;;3.70;;
10645;SDS011;5371;49.782;9.932;2024-01-27T05:37:03;11.37;;;3.50;;
10645;SDS011;5371;49.782;9.932;2024-01-27T05:39:30;9.20;;;3.20;;
10645;SDS011;5371;49.782;9.932;2024-01-27T05:41:57;11.20;;;3.10;;
10645;SDS011;5371;49.782;9.932;2024-01-27T05:44:24;11.50;;;3.30;;
10645;SDS011;5371;49.782;9.932;2024-01-27T05:46:51;8.43;;;3.60;;
10645;SDS011;5371;49.782;9.932;2024-01-27T05:49:18;10.03;;;3.37;;
10645;SDS011;5371;49.782;9.932;2024-01-27T05:51:46;5.00;;;2.87;;
10645;SDS011;5371;49.782;9.932;2024-01-27T05:54:13;10.33;;;3.70;;
10645;SDS011;5371;49.782;9.932;2024-01-27T05:56:42;10.63;;;3.17;;
10645;SDS011;5371;49.782;9.932;2024-01-27T05:59:09;11.37;;;3.30;;
10645;SDS011;5371;49.782;9.932;2024-01-27T06:01:36;7.53;;;3.43;;
10645;SDS011;5371;49.782;9.932;2024-01-27T06:04:05;8.90;;;3.10;;
10645;SDS011;5371;49.782;9.932;2024-01-27T06:06:32;9.90;;;3.43;;
10645;SDS011;5371;49.782;9.932;2024-01-27T06:09:01;12.53;;;3.60;;
10645;SDS011;5371;49.782;9.932;2024-01-27T06:11:29;7.27;;;3.43;;
10645;SDS011;5371;49.782;9.932;2024-01-27T06:13:56;14.00;;;3.30;;
10645;SDS011;5371;49.782;9.932;2024-01-27T06:16:23;8.97;;;3.33;;
10645;SDS011;5371;49.782;9.932;2024-01-27T06:18:50;14.33;;;3.80;;
10645;SDS011;5371;49.782;9.932;2024-01-27T06:21:17;9.87;;;3.63;;
10645;SDS011;5371;49.782;9.932;2024-01-27T06:23:44;9.33;;;3.53;;
10645;SDS011;5371;49.782;9.932;2024-01-27T06:26:12;8.23;;;3.20;;
10645;SDS011;5371;49.782;9.932;2024-01-27T06:28:40;13.57;;;4.00;;
10645;SDS011;5371;49.782;9.932;2024-01-27T06:31:07;9.20;;;3.87;;
10645;SDS011;5371;49.782;9.932;2024-01-27T06:33:34;10.90;;;3.73;;
10645;SDS011;5371;49.782;9.932;2024-01-27T06:36:01;11.87;;;3.83;;
10645;SDS011;5371;49.782;9.932;2024-01-27T06:38:28;11.47;;;3.90;;
10645;SDS011;5371;49.782;9.932;2024-01-27T06:40:59;10.97;;;3.80;;
10645;SDS011;5371;49.782;9.932;2024-01-27T06:43:27;11.23;;;4.00;;
10645;SDS011;5371;49.782;9.932;2024-01-27T06:45:54;10.10;;;3.73;;
10645;SDS011;5371;49.782;9.932;2024-01-27T06:48:22;11.37;;;3.20;;
10645;SDS011;5371;49.782;9.932;2024-01-27T06:50:50;9.50;;;3.73;;
10645;SDS011;5371;49.782;9.932;2024-01-27T06:53:18;13.90;;;3.90;;
10645;SDS011;5371;49.782;9.932;2024-01-27T06:55:45;10.47;;;3.53;;
10645;SDS011;5371;49.782;9.932;2024-01-27T06:58:12;9.80;;;3.53;;
10645;SDS011;5371;49.782;9.932;2024-01-27T07:00:40;9.13;;;3.90;;
10645;SDS011;5371;49.782;9.932;2024-01-27T07:03:07;12.00;;;4.30;;
10645;SDS011;5371;49.782;9.932;2024-01-27T07:05:34;12.83;;;4.40;;
10645;SDS011;5371;49.782;9.932;2024-01-27T07:08:04;9.03;;;3.70;;
10645;SDS011;5371;49.782;9.932;2024-01-27T07:10:32;14.30;;;4.70;;
10645;SDS011;5371;49.782;9.932;2024-01-27T07:12:59;14.93;;;4.53;;
10645;SDS011;5371;49.782;9.932;2024-01-27T07:15:26;13.93;;;4.37;;
10645;SDS011;5371;49.782;9.932;2024-01-27T07:17:55;10.93;;;4.77;;
10645;SDS011;5371;49.782;9.932;2024-01-27T07:20:22;14.50;;;4.47;;
10645;SDS011;5371;49.782;9.932;2024-01-27T07:22:49;11.77;;;4.90;;
10645;SDS011;5371;49.782;9.932;2024-01-27T07:25:16;12.10;;;4.90;;
10645;SDS011;5371;49.782;9.932;2024-01-27T07:27:43;14.77;;;4.70;;
10645;SDS011;5371;49.782;9.932;2024-01-27T07:30:11;11.27;;;4.20;;
10645;SDS011;5371;49.782;9.932;2024-01-27T07:32:38;11.10;;;4.27;;
10645;SDS011;5371;49.782;9.932;2024-01-27T07:35:07;9.07;;;4.30;;
10645;SDS011;5371;49.782;9.932;2024-01-27T07:37:34;10.37;;;4.20;;
10645;SDS011;5371;49.782;9.932;2024-01-27T07:40:02;11.27;;;4.67;;
10645;SDS011;5371;49.782;9.932;2024-01-27T07:42:29;16.90;;;4.97;;
10645;SDS011;5371;49.782;9.932;2024-01-27T07:44:56;11.90;;;4.90;;
10645;SDS011;5371;49.782;9.932;2024-01-27T07:47:23;8.40;;;4.10;;
10645;SDS011;5371;49.782;9.932;2024-01-27T07:49:50;11.67;;;5.00;;
10645;SDS011;5371;49.782;9.932;2024-01-27T07:52:19;11.50;;;4.73;;
10645;SDS011;5371;49.782;9.932;2024-01-27T07:54:46;16.17;;;4.33;;
10645;SDS011;5371;49.782;9.932;2024-01-27T07:57:13;10.23;;;4.37;;
10645;SDS011;5371;49.782;9.932;2024-01-27T07:59:39;12.77;;;5.10;;
10645;SDS011;5371;49.782;9.932;2024-01-27T08:02:06;10.63;;;4.40;;
10645;SDS011;5371;49.782;9.932;2024-01-27T08:04:33;8.33;;;4.80;;
10645;SDS011;5371;49.782;9.932;2024-01-27T08:07:00;18.00;;;5.30;;
10645;SDS011;5371;49.782;9.932;2024-01-27T08:09:32;10.63;;;5.03;;
10645;SDS011;5371;49.782;9.932;2024-01-27T08:12:03;13.13;;;5.03;;
10645;SDS011;5371;49.782;9.932;2024-01-27T08:14:30;10.00;;;4.43;;
10645;SDS011;5371;49.782;9.932;2024-01-27T08:16:58;14.33;;;4.90;;
10645;SDS011;5371;49.782;9.932;2024-01-27T08:19:26;11.67;;;4.60;;
10645;SDS011;5371;49.782;9.932;2024-01-27T08:21:53;13.00;;;4.70;;
10645;SDS011;5371;49.782;9.932;2024-01-27T08:24:20;10.67;;;4.13;;
10645;SDS011;5371;49.782;9.932;2024-01-27T08:26:49;16.17;;;4.40;;
10645;SDS011;5371;49.782;9.932;2024-01-27T08:29:16;17.77;;;4.63;;
10645;SDS011;5371;49.782;9.932;2024-01-27T08:31:43;13.07;;;4.43;;
10645;SDS011;5371;49.782;9.932;2024-01-27T08:34:10;15.90;;;5.23;;
10645;SDS011;5371;49.782;9.932;2024-01-27T08:36:39;13.13;;;5.33;;
10645;SDS011;5371;49.782;9.932;2024-01-27T08:39:06;11.70;;;4.40;;
10645;SDS011;5371;49.782;9.932;2024-01-27T08:41:34;11.27;;;4.17;;
10645;SDS011;5371;49.782;9.932;2024-01-27T08:44:03;10.00;;;4.50;;
10645;SDS011;5371;49.782;9.932;2024-01-27T08:46:30;13.20;;;3.77;;
10645;SDS011;5371;49.782;9.932;2024-01-27T08:48:57;13.43;;;4.33;;
10645;SDS011;5371;49.782;9.932;2024-01-27T08:51:24;17.27;;;4.63;;
10645;SDS011;5371;49.782;9.932;2024-01-27T08:53:52;8.77;;;4.33;;
10645;SDS011;5371;49.782;9.932;2024-01-27T08:56:18;12.50;;;4.03;;
10645;SDS011;5371;49.782;9.932;2024-01-27T08:58:45;7.93;;;3.63;;
10645;SDS011;5371;49.782;9.932;2024-01-27T09:01:15;8.97;;;3.40;;
10645;SDS011;5371;49.782;9.932;2024-01-27T09:03:42;9.10;;;3.87;;
10645;SDS011;5371;49.782;9.932;2024-01-27T09:06:09;9.47;;;3.77;;
10645;SDS011;5371;49.782;9.932;2024-01-27T09:08:36;10.17;;;4.40;;
10645;SDS011;5371;49.782;9.932;2024-01-27T09:11:03;10.57;;;4.43;;
10645;SDS011;5371;49.782;9.932;2024-01-27T09:13:30;13.00;;;4.67;;
10645;SDS011;5371;49.782;9.932;2024-01-27T09:15:57;9.37;;;4.30;;
10645;SDS011;5371;49.782;9.932;2024-01-27T09:18:26;13.53;;;4.70;;
10645;SDS011;5371;49.782;9.932;2024-01-27T09:20:53;10.23;;;4.13;;
10645;SDS011;5371;49.782;9.932;2024-01-27T09:23:20;9.43;;;3.80;;
10645;SDS011;5371;49.782;9.932;2024-01-27T09:25:47;12.63;;;4.07;;
10645;SDS011;5371;49.782;9.932;2024-01-27T09:28:14;10.87;;;4.33;;
10645;SDS011;5371;49.782;9.932;2024-01-27T09:30:41;7.50;;;3.70;;
10645;SDS011;5371;49.782;9.932;2024-01-27T09:33:08;10.97;;;3.57;;
10645;SDS011;5371;49.782;9.932;2024-01-27T09:35:36;8.60;;;3.47;;
10645;SDS011;5371;49.782;9.932;2024-01-27T09:38:17;10.03;;;4.03;;
10645;SDS011;5371;49.782;9.932;2024-01-27T09:40:44;11.60;;;3.87;;
10645;SDS011;5371;49.782;9.932;2024-01-27T09:43:13;12.80;;;4.10;;
10645;SDS011;5371;49.782;9.932;2024-01-27T09:45:40;8.70;;;3.27;;
10645;SDS011;5371;49.782;9.932;2024-01-27T09:48:07;10.03;;;3.73;;
10645;SDS011;5371;49.782;9.932;2024-01-27T09:50:38;9.75;;;3.65;;
10645;SDS011;5371;49.782;9.932;2024-01-27T09:53:07;7.30;;;3.17;;
10645;SDS011;5371;49.782;9.932;2024-01-27T09:55:35;11.63;;;3.72;;
10645;SDS011;5371;49.782;9.932;2024-01-27T09:58:02;9.23;;;3.08;;
10645;SDS011;5371;49.782;9.932;2024-01-27T10:00:30;9.90;;;3.53;;
10645;SDS011;5371;49.782;9.932;2024-01-27T10:02:57;8.98;;;3.28;;
10645;SDS011;5371;49.782;9.932;2024-01-27T10:05:24;7.22;;;3.00;;
10645;SDS011;5371;49.782;9.932;2024-01-27T10:07:53;11.30;;;3.08;;
10645;SDS011;5371;49.782;9.932;2024-01-27T10:10:20;8.23;;;2.75;;
10645;SDS011;5371;49.782;9.932;2024-01-27T10:12:47;7.57;;;2.50;;
10645;SDS011;5371;49.782;9.932;2024-01-27T10:15:18;9.95;;;3.13;;
10645;SDS011;5371;49.782;9.932;2024-01-27T10:17:45;10.20;;;2.80;;
10645;SDS011;5371;49.782;9.932;2024-01-27T10:20:14;6.82;;;2.42;;
10645;SDS011;5371;49.782;9.932;2024-01-27T10:22:44;7.72;;;2.72;;
10645;SDS011;5371;49.782;9.932;2024-01-27T10:25:12;8.48;;;3.00;;
10645;SDS011;5371;49.782;9.932;2024-01-27T10:27:40;10.98;;;2.67;;
10645;SDS011;5371;49.782;9.932;2024-01-27T10:30:08;8.45;;;2.35;;
10645;SDS011;5371;49.782;9.932;2024-01-27T10:32:42;11.95;;;2.80;;
10645;SDS011;5371;49.782;9.932;2024-01-27T10:35:09;16.45;;;2.80;;
10645;SDS011;5371;49.782;9.932;2024-01-27T10:37:36;7.78;;;2.42;;
10645;SDS011;5371;49.782;9.932;2024-01-27T10:40:04;11.32;;;2.58;;
10645;SDS011;5371;49.782;9.932;2024-01-27T10:42:34;8.93;;;2.40;;
10645;SDS011;5371;49.782;9.932;2024-01-27T10:45:01;9.70;;;2.58;;
10645;SDS011;5371;49.782;9.932;2024-01-27T10:47:30;8.82;;;2.70;;
10645;SDS011;5371;49.782;9.932;2024-01-27T10:49:58;10.07;;;2.38;;
10645;SDS011;5371;49.782;9.932;2024-01-27T10:52:27;8.93;;;2.67;;
10645;SDS011;5371;49.782;9.932;2024-01-27T10:54:56;9.05;;;2.60;;
10645;SDS011;5371;49.782;9.932;2024-01-27T10:57:26;11.35;;;2.67;;
10645;SDS011;5371;49.782;9.932;2024-01-27T10:59:55;9.70;;;2.65;;
10645;SDS011;5371;49.782;9.932;2024-01-27T11:02:23;10.43;;;2.85;;
10645;SDS011;5371;49.782;9.932;2024-01-27T11:04:50;8.35;;;2.40;;
10645;SDS011;5371;49.782;9.932;2024-01-27T11:07:19;10.30;;;3.20;;
10645;SDS011;5371;49.782;9.932;2024-01-27T11:09:46;14.80;;;3.22;;
10645;SDS011;5371;49.782;9.932;2024-01-27T11:12:13;11.32;;;3.33;;
10645;SDS011;5371;49.782;9.932;2024-01-27T11:14:40;13.27;;;2.88;;
10645;SDS011;5371;49.782;9.932;2024-01-27T11:17:10;12.93;;;2.67;;
10645;SDS011;5371;49.782;9.932;2024-01-27T11:19:39;12.13;;;2.33;;
10645;SDS011;5371;49.782;9.932;2024-01-27T11:22:06;12.88;;;3.10;;
10645;SDS011;5371;49.782;9.932;2024-01-27T11:24:33;13.55;;;4.70;;
10645;SDS011;5371;49.782;9.932;2024-01-27T11:27:01;9.00;;;2.63;;
10645;SDS011;5371;49.782;9.932;2024-01-27T11:29:28;7.85;;;2.42;;
10645;SDS011;5371;49.782;9.932;2024-01-27T11:31:57;11.05;;;2.38;;
10645;SDS011;5371;49.782;9.932;2024-01-27T11:34:28;13.57;;;2.92;;
10645;SDS011;5371;49.782;9.932;2024-01-27T11:36:55;9.82;;;2.83;;
10645;SDS011;5371;49.782;9.932;2024-01-27T11:39:23;9.82;;;2.70;;
10645;SDS011;5371;49.782;9.932;2024-01-27T11:41:50;8.85;;;2.65;;
10645;SDS011;5371;49.782;9.932;2024-01-27T11:44:17;11.65;;;2.53;;
10645;SDS011;5371;49.782;9.932;2024-01-27T11:46:44;10.23;;;2.63;;
10645;SDS011;5371;49.782;9.932;2024-01-27T11:49:13;13.40;;;3.05;;
10645;SDS011;5371;49.782;9.932;2024-01-27T11:51:42;8.63;;;2.40;;
10645;SDS011;5371;49.782;9.932;2024-01-27T11:54:10;9.88;;;2.42;;
10645;SDS011;5371;49.782;9.932;2024-01-27T11:56:37;11.05;;;2.40;;
10645;SDS011;5371;49.782;9.932;2024-01-27T11:59:04;9.05;;;3.10;;
10645;SDS011;5371;49.782;9.932;2024-01-27T12:01:31;11.68;;;2.65;;
10645;SDS011;5371;49.782;9.932;2024-01-27T12:03:58;11.68;;;2.97;;
10645;SDS011;5371;49.782;9.932;2024-01-27T12:06:25;11.98;;;2.42;;
10645;SDS011;5371;49.782;9.932;2024-01-27T12:08:55;8.82;;;2.42;;
10645;SDS011;5371;49.782;9.932;2024-01-27T12:11:22;10.77;;;2.25;;
10645;SDS011;5371;49.782;9.932;2024-01-27T12:13:50;6.55;;;2.33;;
10645;SDS011;5371;49.782;9.932;2024-01-27T12:16:17;10.90;;;2.88;;
10645;SDS011;5371;49.782;9.932;2024-01-27T12:18:45;12.35;;;2.58;;
10645;SDS011;5371;49.782;9.932;2024-01-27T12:21:12;11.10;;;2.70;;
10645;SDS011;5371;49.782;9.932;2024-01-27T12:23:49;14.38;;;3.25;;
10645;SDS011;5371;49.782;9.932;2024-01-27T12:26:18;11.50;;;2.80;;
10645;SDS011;5371;49.782;9.932;2024-01-27T12:28:46;7.93;;;2.10;;
10645;SDS011;5371;49.782;9.932;2024-01-27T12:31:15;9.23;;;2.20;;
10645;SDS011;5371;49.782;9.932;2024-01-27T12:33:49;9.15;;;2.55;;
10645;SDS011;5371;49.782;9.932;2024-01-27T12:36:17;9.10;;;2.40;;
10645;SDS011;5371;49.782;9.932;2024-01-27T12:38:55;9.55;;;2.22;;
10645;SDS011;5371;49.782;9.932;2024-01-27T12:41:25;8.70;;;2.55;;
10645;SDS011;5371;49.782;9.932;2024-01-27T12:43:52;10.68;;;2.20;;
10645;SDS011;5371;49.782;9.932;2024-01-27T12:46:19;10.32;;;2.70;;
10645;SDS011;5371;49.782;9.932;2024-01-27T12:48:46;10.45;;;2.30;;
10645;SDS011;5371;49.782;9.932;2024-01-27T12:51:13;10.75;;;2.97;;
10645;SDS011;5371;49.782;9.932;2024-01-27T12:53:41;10.10;;;2.47;;
10645;SDS011;5371;49.782;9.932;2024-01-27T12:56:09;9.82;;;2.30;;
10645;SDS011;5371;49.782;9.932;2024-01-27T12:58:38;11.07;;;2.25;;
10645;SDS011;5371;49.782;9.932;2024-01-27T13:01:05;7.82;;;2.30;;
10645;SDS011;5371;49.782;9.932;2024-01-27T13:03:32;8.82;;;2.65;;
10645;SDS011;5371;49.782;9.932;2024-01-27T13:05:59;9.82;;;2.55;;
10645;SDS011;5371;49.782;9.932;2024-01-27T13:08:26;11.30;;;2.20;;
10645;SDS011;5371;49.782;9.932;2024-01-27T13:10:53;9.60;;;2.30;;
10645;SDS011;5371;49.782;9.932;2024-01-27T13:13:20;9.03;;;2.20;;
10645;SDS011;5371;49.782;9.932;2024-01-27T13:15:48;10.03;;;2.50;;
10645;SDS011;5371;49.782;9.932;2024-01-27T13:18:15;11.13;;;2.40;;
10645;SDS011;5371;49.782;9.932;2024-01-27T13:20:42;10.63;;;2.60;;
10645;SDS011;5371;49.782;9.932;2024-01-27T13:23:09;7.43;;;2.23;;
10645;SDS011;5371;49.782;9.932;2024-01-27T13:25:36;11.93;;;2.10;;
10645;SDS011;5371;49.782;9.932;2024-01-27T13:28:03;6.33;;;2.00;;
10645;SDS011;5371;49.782;9.932;2024-01-27T13:30:32;8.07;;;2.40;;
10645;SDS011;5371;49.782;9.932;2024-01-27T13:33:01;12.53;;;2.33;;
10645;SDS011;5371;49.782;9.932;2024-01-27T13:35:28;12.60;;;2.57;;
10645;SDS011;5371;49.782;9.932;2024-01-27T13:37:55;11.53;;;3.00;;
10645;SDS011;5371;49.782;9.932;2024-01-27T13:40:22;7.73;;;2.60;;
10645;SDS011;5371;49.782;9.932;2024-01-27T13:42:49;7.87;;;2.30;;
10645;SDS011;5371;49.782;9.932;2024-01-27T13:45:18;8.90;;;2.20;;
10645;SDS011;5371;49.782;9.932;2024-01-27T13:47:45;13.30;;;2.60;;
10645;SDS011;5371;49.782;9.932;2024-01-27T13:50:13;8.23;;;2.37;;
10645;SDS011;5371;49.782;9.932;2024-01-27T13:52:40;7.37;;;2.57;;
10645;SDS011;5371;49.782;9.932;2024-01-27T13:55:09;8.40;;;2.60;;
10645;SDS011;5371;49.782;9.932;2024-01-27T13:57:38;9.83;;;2.50;;
10645;SDS011;5371;49.782;9.932;2024-01-27T14:00:06;8.40;;;2.23;;
10645;SDS011;5371;49.782;9.932;2024-01-27T14:02:34;9.27;;;2.57;;
10645;SDS011;5371;49.782;9.932;2024-01-27T14:05:01;13.23;;;2.50;;
10645;SDS011;5371;49.782;9.932;2024-01-27T14:07:29;10.87;;;2.67;;
10645;SDS011;5371;49.782;9.932;2024-01-27T14:09:56;8.50;;;2.50;;
10645;SDS011;5371;49.782;9.932;2024-01-27T14:12:23;8.63;;;2.33;;
10645;SDS011;5371;49.782;9.932;2024-01-27T14:14:50;10.63;;;2.50;;
10645;SDS011;5371;49.782;9.932;2024-01-27T14:17:18;10.93;;;2.40;;
10645;SDS011;5371;49.782;9.932;2024-01-27T14:19:46;7.87;;;2.13;;
10645;SDS011;5371;49.782;9.932;2024-01-27T14:22:12;11.30;;;2.53;;
10645;SDS011;5371;49.782;9.932;2024-01-27T14:24:41;11.50;;;2.77;;
10645;SDS011;5371;49.782;9.932;2024-01-27T14:27:08;8.57;;;2.20;;
10645;SDS011;5371;49.782;9.932;2024-01-27T14:29:36;8.27;;;2.23;;
10645;SDS011;5371;49.782;9.932;2024-01-27T14:32:03;9.10;;;2.53;;
10645;SDS011;5371;49.782;9.932;2024-01-27T14:34:32;9.83;;;2.40;;
10645;SDS011;5371;49.782;9.932;2024-01-27T14:36:59;15.97;;;2.93;;
10645;SDS011;5371;49.782;9.932;2024-01-27T14:39:27;8.53;;;2.87;;
10645;SDS011;5371;49.782;9.932;2024-01-27T14:41:57;11.87;;;2.40;;
10645;SDS011;5371;49.782;9.932;2024-01-27T14:44:28;10.53;;;3.03;;
10645;SDS011;5371;49.782;9.932;2024-01-27T14:46:55;9.53;;;2.43;;
10645;SDS011;5371;49.782;9.932;2024-01-27T14:49:22;7.83;;;2.10;;
10645;SDS011;5371;49.782;9.932;2024-01-27T14:51:49;9.97;;;2.50;;
10645;SDS011;5371;49.782;9.932;2024-01-27T14:54:16;8.50;;;2.67;;
10645;SDS011;5371;49.782;9.932;2024-01-27T14:56:44;10.67;;;2.60;;